sensor_id;sensor_type;location;lat;lon;timestamp;P1;durP1;ratioP1;P2;durP2;ratioP2
18280;SDS011;9266;51.132;17.062;2023-02-15T00:01:32;35.10;;;21.67;;
18280;SDS011;9266;51.132;17.062;2023-02-15T00:04:00;44.67;;;24.20;;
18280;SDS011;9266;51.132;17.062;2023-02-15T00:06:28;43.47;;;23.37;;
18280;SDS011;9266;51.132;17.062;2023-02-15T00:08:55;41.23;;;23.57;;
18280;SDS011;9266;51.132;17.062;2023-02-15T00:11:22;42.17;;;22.97;;
18280;SDS011;9266;51.132;17.062;2023-02-15T00:14:04;39.33;;;22.67;;
18280;SDS011;9266;51.132;17.062;2023-02-15T00:16:31;38.70;;;22.07;;
18280;SDS011;9266;51.132;17.062;2023-02-15T00:18:58;39.57;;;22.57;;
18280;SDS011;9266;51.132;17.062;2023-02-15T00:21:27;42.30;;;23.50;;
18280;SDS011;9266;51.132;17.062;2023-02-15T00:23:56;42.93;;;22.87;;
18280;SDS011;9266;51.132;17.062;2023-02-15T00:26:24;40.37;;;23.67;;
18280;SDS011;9266;51.132;17.062;2023-02-15T00:28:51;42.77;;;23.70;;
18280;SDS011;9266;51.132;17.062;2023-02-15T00:31:18;37.13;;;22.13;;
18280;SDS011;9266;51.132;17.062;2023-02-15T00:33:46;40.93;;;24.27;;
18280;SDS011;9266;51.132;17.062;2023-02-15T00:36:13;42.53;;;23.83;;
18280;SDS011;9266;51.132;17.062;2023-02-15T00:38:42;40.83;;;22.73;;
18280;SDS011;9266;51.132;17.062;2023-02-15T00:41:09;42.63;;;23.60;;
18280;SDS011;9266;51.132;17.062;2023-02-15T00:43:36;71.50;;;35.17;;
18280;SDS011;9266;51.132;17.062;2023-02-15T00:46:04;47.63;;;25.43;;
18280;SDS011;9266;51.132;17.062;2023-02-15T00:48:31;45.40;;;25.30;;
18280;SDS011;9266;51.132;17.062;2023-02-15T00:50:59;43.83;;;24.97;;
18280;SDS011;9266;51.132;17.062;2023-02-15T00:53:27;44.47;;;24.33;;
18280;SDS011;9266;51.132;17.062;2023-02-15T00:55:56;43.00;;;24.43;;
18280;SDS011;9266;51.132;17.062;2023-02-15T00:58:24;46.80;;;25.77;;
18280;SDS011;9266;51.132;17.062;2023-02-15T01:00:51;57.87;;;30.40;;
18280;SDS011;9266;51.132;17.062;2023-02-15T01:03:19;59.90;;;32.53;;
18280;SDS011;9266;51.132;17.062;2023-02-15T01:05:47;58.33;;;32.73;;
18280;SDS011;9266;51.132;17.062;2023-02-15T01:08:15;59.40;;;32.20;;
18280;SDS011;9266;51.132;17.062;2023-02-15T01:10:43;64.47;;;34.93;;
18280;SDS011;9266;51.132;17.062;2023-02-15T01:13:13;60.27;;;35.23;;
18280;SDS011;9266;51.132;17.062;2023-02-15T01:15:41;69.80;;;33.50;;
18280;SDS011;9266;51.132;17.062;2023-02-15T01:18:08;57.53;;;34.53;;
18280;SDS011;9266;51.132;17.062;2023-02-15T01:20:36;57.13;;;33.00;;
18280;SDS011;9266;51.132;17.062;2023-02-15T01:23:06;64.13;;;34.57;;
18280;SDS011;9266;51.132;17.062;2023-02-15T01:25:34;62.97;;;34.53;;
18280;SDS011;9266;51.132;17.062;2023-02-15T01:28:02;63.43;;;34.03;;
18280;SDS011;9266;51.132;17.062;2023-02-15T01:30:31;65.03;;;35.50;;
18280;SDS011;9266;51.132;17.062;2023-02-15T01:32:59;64.10;;;35.07;;
18280;SDS011;9266;51.132;17.062;2023-02-15T01:35:27;61.57;;;34.37;;
18280;SDS011;9266;51.132;17.062;2023-02-15T01:37:54;69.27;;;35.40;;
18280;SDS011;9266;51.132;17.062;2023-02-15T01:40:21;60.87;;;35.30;;
18280;SDS011;9266;51.132;17.062;2023-02-15T01:42:50;63.90;;;34.60;;
18280;SDS011;9266;51.132;17.062;2023-02-15T01:45:19;63.67;;;34.57;;
18280;SDS011;9266;51.132;17.062;2023-02-15T01:47:51;65.67;;;35.37;;
18280;SDS011;9266;51.132;17.062;2023-02-15T01:50:26;63.87;;;35.30;;
18280;SDS011;9266;51.132;17.062;2023-02-15T01:52:58;62.37;;;34.63;;
18280;SDS011;9266;51.132;17.062;2023-02-15T01:55:31;70.73;;;36.17;;
18280;SDS011;9266;51.132;17.062;2023-02-15T01:58:00;70.37;;;37.97;;
18280;SDS011;9266;51.132;17.062;2023-02-15T02:00:28;68.53;;;36.53;;
18280;SDS011;9266;51.132;17.062;2023-02-15T02:02:57;66.70;;;34.87;;
18280;SDS011;9266;51.132;17.062;2023-02-15T02:05:24;65.50;;;37.50;;
18280;SDS011;9266;51.132;17.062;2023-02-15T02:07:52;69.60;;;35.23;;
18280;SDS011;9266;51.132;17.062;2023-02-15T02:10:23;59.07;;;34.27;;
18280;SDS011;9266;51.132;17.062;2023-02-15T02:12:51;65.37;;;34.73;;
18280;SDS011;9266;51.132;17.062;2023-02-15T02:15:21;63.33;;;35.57;;
18280;SDS011;9266;51.132;17.062;2023-02-15T02:17:55;63.23;;;34.97;;
18280;SDS011;9266;51.132;17.062;2023-02-15T02:23:34;68.83;;;36.00;;
18280;SDS011;9266;51.132;17.062;2023-02-15T02:29:38;67.80;;;34.83;;
18280;SDS011;9266;51.132;17.062;2023-02-15T02:35:38;69.50;;;35.60;;
18280;SDS011;9266;51.132;17.062;2023-02-15T02:38:16;64.87;;;36.73;;
18280;SDS011;9266;51.132;17.062;2023-02-15T02:40:52;72.50;;;37.93;;
18280;SDS011;9266;51.132;17.062;2023-02-15T02:43:27;67.37;;;36.70;;
18280;SDS011;9266;51.132;17.062;2023-02-15T02:46:00;68.00;;;37.37;;
18280;SDS011;9266;51.132;17.062;2023-02-15T02:48:33;62.67;;;36.13;;
18280;SDS011;9266;51.132;17.062;2023-02-15T02:51:03;69.33;;;38.50;;
18280;SDS011;9266;51.132;17.062;2023-02-15T02:53:31;73.20;;;39.73;;
18280;SDS011;9266;51.132;17.062;2023-02-15T02:56:02;79.20;;;42.87;;
18280;SDS011;9266;51.132;17.062;2023-02-15T02:58:33;83.67;;;43.83;;
18280;SDS011;9266;51.132;17.062;2023-02-15T03:01:06;84.83;;;45.07;;
18280;SDS011;9266;51.132;17.062;2023-02-15T03:03:39;79.70;;;42.03;;
18280;SDS011;9266;51.132;17.062;2023-02-15T03:06:10;77.80;;;44.30;;
18280;SDS011;9266;51.132;17.062;2023-02-15T03:08:44;82.73;;;44.70;;
18280;SDS011;9266;51.132;17.062;2023-02-15T03:11:14;76.30;;;41.90;;
18280;SDS011;9266;51.132;17.062;2023-02-15T03:13:42;73.27;;;42.23;;
18280;SDS011;9266;51.132;17.062;2023-02-15T03:16:10;72.33;;;42.53;;
18280;SDS011;9266;51.132;17.062;2023-02-15T03:18:52;73.87;;;42.03;;
18280;SDS011;9266;51.132;17.062;2023-02-15T03:21:26;70.90;;;40.57;;
18280;SDS011;9266;51.132;17.062;2023-02-15T03:23:59;70.60;;;39.67;;
18280;SDS011;9266;51.132;17.062;2023-02-15T03:26:30;73.57;;;40.63;;
18280;SDS011;9266;51.132;17.062;2023-02-15T03:29:00;67.17;;;39.40;;
18280;SDS011;9266;51.132;17.062;2023-02-15T03:31:30;70.70;;;41.90;;
18280;SDS011;9266;51.132;17.062;2023-02-15T03:34:00;67.57;;;40.23;;
18280;SDS011;9266;51.132;17.062;2023-02-15T03:36:33;70.33;;;41.50;;
18280;SDS011;9266;51.132;17.062;2023-02-15T03:39:08;70.23;;;38.93;;
18280;SDS011;9266;51.132;17.062;2023-02-15T03:41:42;71.40;;;38.87;;
18280;SDS011;9266;51.132;17.062;2023-02-15T03:44:15;68.23;;;38.97;;
18280;SDS011;9266;51.132;17.062;2023-02-15T03:46:50;65.17;;;38.33;;
18280;SDS011;9266;51.132;17.062;2023-02-15T03:49:21;66.63;;;38.30;;
18280;SDS011;9266;51.132;17.062;2023-02-15T03:51:53;70.73;;;39.37;;
18280;SDS011;9266;51.132;17.062;2023-02-15T03:54:24;63.60;;;38.37;;
18280;SDS011;9266;51.132;17.062;2023-02-15T03:57:12;64.57;;;38.77;;
18280;SDS011;9266;51.132;17.062;2023-02-15T03:59:58;65.87;;;39.10;;
18280;SDS011;9266;51.132;17.062;2023-02-15T04:02:48;65.07;;;39.03;;
18280;SDS011;9266;51.132;17.062;2023-02-15T04:05:24;65.97;;;37.50;;
18280;SDS011;9266;51.132;17.062;2023-02-15T04:07:52;63.57;;;36.87;;
18280;SDS011;9266;51.132;17.062;2023-02-15T04:10:19;58.73;;;34.83;;
18280;SDS011;9266;51.132;17.062;2023-02-15T04:13:03;64.30;;;36.10;;
18280;SDS011;9266;51.132;17.062;2023-02-15T04:15:31;59.37;;;33.80;;
18280;SDS011;9266;51.132;17.062;2023-02-15T04:18:15;53.47;;;32.93;;
18280;SDS011;9266;51.132;17.062;2023-02-15T04:20:43;49.20;;;31.83;;
18280;SDS011;9266;51.132;17.062;2023-02-15T04:23:29;67.20;;;34.33;;
18280;SDS011;9266;51.132;17.062;2023-02-15T04:26:14;56.27;;;33.57;;
18280;SDS011;9266;51.132;17.062;2023-02-15T04:28:41;56.67;;;34.17;;
18280;SDS011;9266;51.132;17.062;2023-02-15T04:31:08;52.47;;;33.37;;
18280;SDS011;9266;51.132;17.062;2023-02-15T04:33:35;55.27;;;33.63;;
18280;SDS011;9266;51.132;17.062;2023-02-15T04:36:03;64.13;;;35.93;;
18280;SDS011;9266;51.132;17.062;2023-02-15T04:38:32;56.30;;;34.40;;
18280;SDS011;9266;51.132;17.062;2023-02-15T04:40:59;57.10;;;31.80;;
18280;SDS011;9266;51.132;17.062;2023-02-15T04:43:26;60.60;;;32.00;;
18280;SDS011;9266;51.132;17.062;2023-02-15T04:45:53;56.13;;;32.10;;
18280;SDS011;9266;51.132;17.062;2023-02-15T04:48:20;55.07;;;33.47;;
18280;SDS011;9266;51.132;17.062;2023-02-15T04:50:47;55.63;;;31.67;;
18280;SDS011;9266;51.132;17.062;2023-02-15T04:53:14;56.60;;;32.40;;
18280;SDS011;9266;51.132;17.062;2023-02-15T04:55:43;56.87;;;33.93;;
18280;SDS011;9266;51.132;17.062;2023-02-15T04:58:10;57.10;;;34.53;;
18280;SDS011;9266;51.132;17.062;2023-02-15T05:00:37;53.73;;;32.30;;
18280;SDS011;9266;51.132;17.062;2023-02-15T05:03:05;56.00;;;32.93;;
18280;SDS011;9266;51.132;17.062;2023-02-15T05:05:32;55.80;;;31.80;;
18280;SDS011;9266;51.132;17.062;2023-02-15T05:07:59;56.83;;;32.10;;
18280;SDS011;9266;51.132;17.062;2023-02-15T05:10:26;54.87;;;32.87;;
18280;SDS011;9266;51.132;17.062;2023-02-15T05:12:54;53.70;;;31.40;;
18280;SDS011;9266;51.132;17.062;2023-02-15T05:15:21;59.57;;;33.07;;
18280;SDS011;9266;51.132;17.062;2023-02-15T05:17:48;54.13;;;33.50;;
18280;SDS011;9266;51.132;17.062;2023-02-15T05:20:16;55.53;;;33.00;;
18280;SDS011;9266;51.132;17.062;2023-02-15T05:22:43;57.80;;;31.87;;
18280;SDS011;9266;51.132;17.062;2023-02-15T05:25:10;53.20;;;31.27;;
18280;SDS011;9266;51.132;17.062;2023-02-15T05:27:51;51.73;;;31.73;;
18280;SDS011;9266;51.132;17.062;2023-02-15T05:30:37;57.57;;;33.10;;
18280;SDS011;9266;51.132;17.062;2023-02-15T05:33:05;58.67;;;32.90;;
18280;SDS011;9266;51.132;17.062;2023-02-15T05:35:33;55.80;;;32.03;;
18280;SDS011;9266;51.132;17.062;2023-02-15T05:38:00;54.30;;;31.20;;
18280;SDS011;9266;51.132;17.062;2023-02-15T05:40:27;53.93;;;30.40;;
18280;SDS011;9266;51.132;17.062;2023-02-15T05:42:55;57.43;;;32.93;;
18280;SDS011;9266;51.132;17.062;2023-02-15T05:45:23;54.60;;;32.93;;
18280;SDS011;9266;51.132;17.062;2023-02-15T05:47:51;56.10;;;32.13;;
18280;SDS011;9266;51.132;17.062;2023-02-15T05:50:18;62.07;;;34.30;;
18280;SDS011;9266;51.132;17.062;2023-02-15T05:52:45;59.43;;;34.60;;
18280;SDS011;9266;51.132;17.062;2023-02-15T05:55:12;59.57;;;33.33;;
18280;SDS011;9266;51.132;17.062;2023-02-15T05:57:39;57.07;;;32.83;;
18280;SDS011;9266;51.132;17.062;2023-02-15T06:00:07;58.70;;;34.37;;
18280;SDS011;9266;51.132;17.062;2023-02-15T06:02:35;55.90;;;34.63;;
18280;SDS011;9266;51.132;17.062;2023-02-15T06:05:05;58.90;;;34.50;;
18280;SDS011;9266;51.132;17.062;2023-02-15T06:07:32;55.87;;;33.53;;
18280;SDS011;9266;51.132;17.062;2023-02-15T06:09:59;55.23;;;32.03;;
18280;SDS011;9266;51.132;17.062;2023-02-15T06:12:27;61.17;;;33.60;;
18280;SDS011;9266;51.132;17.062;2023-02-15T06:14:53;57.17;;;34.43;;
18280;SDS011;9266;51.132;17.062;2023-02-15T06:17:21;59.10;;;35.07;;
18280;SDS011;9266;51.132;17.062;2023-02-15T06:19:48;60.53;;;34.87;;
18280;SDS011;9266;51.132;17.062;2023-02-15T06:22:17;55.83;;;32.33;;
18280;SDS011;9266;51.132;17.062;2023-02-15T06:24:45;59.07;;;35.70;;
18280;SDS011;9266;51.132;17.062;2023-02-15T06:27:12;58.57;;;34.47;;
18280;SDS011;9266;51.132;17.062;2023-02-15T06:29:39;62.53;;;35.47;;
18280;SDS011;9266;51.132;17.062;2023-02-15T06:32:06;58.50;;;34.57;;
18280;SDS011;9266;51.132;17.062;2023-02-15T06:34:33;59.87;;;35.23;;
18280;SDS011;9266;51.132;17.062;2023-02-15T06:37:00;58.07;;;35.03;;
18280;SDS011;9266;51.132;17.062;2023-02-15T06:39:29;56.60;;;32.77;;
18280;SDS011;9266;51.132;17.062;2023-02-15T06:41:57;54.73;;;31.90;;
18280;SDS011;9266;51.132;17.062;2023-02-15T06:44:24;57.13;;;34.20;;
18280;SDS011;9266;51.132;17.062;2023-02-15T06:46:51;55.10;;;33.93;;
18280;SDS011;9266;51.132;17.062;2023-02-15T06:49:18;53.70;;;33.37;;
18280;SDS011;9266;51.132;17.062;2023-02-15T06:51:45;49.53;;;31.67;;
18280;SDS011;9266;51.132;17.062;2023-02-15T06:54:12;52.47;;;33.27;;
18280;SDS011;9266;51.132;17.062;2023-02-15T06:56:41;50.30;;;31.23;;
18280;SDS011;9266;51.132;17.062;2023-02-15T06:59:08;49.03;;;29.97;;
18280;SDS011;9266;51.132;17.062;2023-02-15T07:01:35;47.23;;;29.57;;
18280;SDS011;9266;51.132;17.062;2023-02-15T07:04:03;41.57;;;28.03;;
18280;SDS011;9266;51.132;17.062;2023-02-15T07:06:30;40.23;;;27.93;;
18280;SDS011;9266;51.132;17.062;2023-02-15T07:08:58;43.07;;;27.77;;
18280;SDS011;9266;51.132;17.062;2023-02-15T07:11:25;40.07;;;26.30;;
18280;SDS011;9266;51.132;17.062;2023-02-15T07:14:11;38.07;;;25.03;;
18280;SDS011;9266;51.132;17.062;2023-02-15T07:16:38;37.33;;;25.13;;
18280;SDS011;9266;51.132;17.062;2023-02-15T07:19:05;39.13;;;25.27;;
18280;SDS011;9266;51.132;17.062;2023-02-15T07:21:33;36.73;;;24.17;;
18280;SDS011;9266;51.132;17.062;2023-02-15T07:24:00;36.67;;;24.60;;
18280;SDS011;9266;51.132;17.062;2023-02-15T07:26:28;37.90;;;25.77;;
18280;SDS011;9266;51.132;17.062;2023-02-15T07:28:57;33.93;;;23.93;;
18280;SDS011;9266;51.132;17.062;2023-02-15T07:31:25;36.03;;;24.07;;
18280;SDS011;9266;51.132;17.062;2023-02-15T07:33:52;36.03;;;24.23;;
18280;SDS011;9266;51.132;17.062;2023-02-15T07:36:19;35.83;;;23.80;;
18280;SDS011;9266;51.132;17.062;2023-02-15T07:38:46;34.33;;;23.00;;
18280;SDS011;9266;51.132;17.062;2023-02-15T07:41:14;34.50;;;22.10;;
18280;SDS011;9266;51.132;17.062;2023-02-15T07:43:42;35.93;;;23.90;;
18280;SDS011;9266;51.132;17.062;2023-02-15T07:46:11;35.53;;;22.37;;
18280;SDS011;9266;51.132;17.062;2023-02-15T07:48:41;41.47;;;23.73;;
18280;SDS011;9266;51.132;17.062;2023-02-15T07:51:10;33.97;;;23.77;;
18280;SDS011;9266;51.132;17.062;2023-02-15T07:53:38;37.37;;;23.13;;
18280;SDS011;9266;51.132;17.062;2023-02-15T07:56:06;39.37;;;24.67;;
18280;SDS011;9266;51.132;17.062;2023-02-15T07:58:36;37.57;;;24.00;;
18280;SDS011;9266;51.132;17.062;2023-02-15T08:01:22;36.87;;;24.43;;
18280;SDS011;9266;51.132;17.062;2023-02-15T08:03:53;39.50;;;25.30;;
18280;SDS011;9266;51.132;17.062;2023-02-15T08:06:21;39.77;;;24.87;;
18280;SDS011;9266;51.132;17.062;2023-02-15T08:08:49;39.67;;;24.90;;
18280;SDS011;9266;51.132;17.062;2023-02-15T08:11:18;38.13;;;23.77;;
18280;SDS011;9266;51.132;17.062;2023-02-15T08:13:54;37.70;;;24.77;;
18280;SDS011;9266;51.132;17.062;2023-02-15T08:16:25;39.77;;;26.10;;
18280;SDS011;9266;51.132;17.062;2023-02-15T08:18:56;35.73;;;23.47;;
18280;SDS011;9266;51.132;17.062;2023-02-15T08:21:25;34.63;;;22.80;;
18280;SDS011;9266;51.132;17.062;2023-02-15T08:23:54;41.60;;;23.40;;
18280;SDS011;9266;51.132;17.062;2023-02-15T08:26:21;40.03;;;24.53;;
18280;SDS011;9266;51.132;17.062;2023-02-15T08:28:50;39.27;;;24.70;;
18280;SDS011;9266;51.132;17.062;2023-02-15T08:31:17;43.90;;;25.67;;
18280;SDS011;9266;51.132;17.062;2023-02-15T08:33:48;40.47;;;23.93;;
18280;SDS011;9266;51.132;17.062;2023-02-15T08:36:19;43.17;;;26.37;;
18280;SDS011;9266;51.132;17.062;2023-02-15T08:38:47;39.07;;;24.70;;
18280;SDS011;9266;51.132;17.062;2023-02-15T08:41:15;39.27;;;24.07;;
18280;SDS011;9266;51.132;17.062;2023-02-15T08:43:45;40.63;;;25.40;;
18280;SDS011;9266;51.132;17.062;2023-02-15T08:46:14;40.73;;;23.73;;
18280;SDS011;9266;51.132;17.062;2023-02-15T08:48:42;34.43;;;22.23;;
18280;SDS011;9266;51.132;17.062;2023-02-15T08:51:11;37.10;;;22.93;;
18280;SDS011;9266;51.132;17.062;2023-02-15T08:53:41;38.73;;;23.77;;
18280;SDS011;9266;51.132;17.062;2023-02-15T08:56:10;38.17;;;22.87;;
18280;SDS011;9266;51.132;17.062;2023-02-15T08:58:38;38.97;;;23.03;;
18280;SDS011;9266;51.132;17.062;2023-02-15T09:01:08;37.47;;;23.63;;
18280;SDS011;9266;51.132;17.062;2023-02-15T09:03:36;37.87;;;23.17;;
18280;SDS011;9266;51.132;17.062;2023-02-15T09:06:04;38.27;;;22.70;;
18280;SDS011;9266;51.132;17.062;2023-02-15T09:08:31;38.00;;;23.97;;
18280;SDS011;9266;51.132;17.062;2023-02-15T09:11:07;36.20;;;23.23;;
18280;SDS011;9266;51.132;17.062;2023-02-15T09:13:36;39.37;;;23.47;;
18280;SDS011;9266;51.132;17.062;2023-02-15T09:16:04;39.63;;;23.70;;
18280;SDS011;9266;51.132;17.062;2023-02-15T09:18:33;39.70;;;24.00;;
18280;SDS011;9266;51.132;17.062;2023-02-15T09:21:06;40.17;;;23.43;;
18280;SDS011;9266;51.132;17.062;2023-02-15T09:23:34;35.83;;;23.00;;
18280;SDS011;9266;51.132;17.062;2023-02-15T09:26:02;38.43;;;23.80;;
18280;SDS011;9266;51.132;17.062;2023-02-15T09:28:31;44.30;;;24.30;;
18280;SDS011;9266;51.132;17.062;2023-02-15T09:31:04;39.97;;;23.60;;
18280;SDS011;9266;51.132;17.062;2023-02-15T09:33:33;38.60;;;24.23;;
18280;SDS011;9266;51.132;17.062;2023-02-15T09:36:01;37.27;;;23.07;;
18280;SDS011;9266;51.132;17.062;2023-02-15T09:38:28;37.77;;;23.87;;
18280;SDS011;9266;51.132;17.062;2023-02-15T09:40:57;38.13;;;24.17;;
18280;SDS011;9266;51.132;17.062;2023-02-15T09:43:44;39.17;;;23.60;;
18280;SDS011;9266;51.132;17.062;2023-02-15T09:46:27;37.07;;;23.50;;
18280;SDS011;9266;51.132;17.062;2023-02-15T09:49:07;35.67;;;23.10;;
18280;SDS011;9266;51.132;17.062;2023-02-15T09:54:47;35.30;;;22.73;;
18280;SDS011;9266;51.132;17.062;2023-02-15T09:57:26;36.87;;;22.63;;
18280;SDS011;9266;51.132;17.062;2023-02-15T10:00:02;40.23;;;22.73;;
18280;SDS011;9266;51.132;17.062;2023-02-15T10:02:44;40.40;;;24.07;;
18280;SDS011;9266;51.132;17.062;2023-02-15T10:05:25;37.30;;;23.30;;
18280;SDS011;9266;51.132;17.062;2023-02-15T10:08:13;40.00;;;22.87;;
18280;SDS011;9266;51.132;17.062;2023-02-15T10:11:07;36.13;;;23.27;;
18280;SDS011;9266;51.132;17.062;2023-02-15T10:14:01;34.37;;;22.47;;
18280;SDS011;9266;51.132;17.062;2023-02-15T10:16:41;38.77;;;25.03;;
18280;SDS011;9266;51.132;17.062;2023-02-15T10:19:17;34.03;;;22.63;;
18280;SDS011;9266;51.132;17.062;2023-02-15T10:21:54;37.47;;;23.87;;
18280;SDS011;9266;51.132;17.062;2023-02-15T10:24:36;34.07;;;22.73;;
18280;SDS011;9266;51.132;17.062;2023-02-15T10:27:12;29.73;;;20.20;;
18280;SDS011;9266;51.132;17.062;2023-02-15T10:29:46;36.20;;;22.70;;
18280;SDS011;9266;51.132;17.062;2023-02-15T10:32:28;35.50;;;22.67;;
18280;SDS011;9266;51.132;17.062;2023-02-15T10:35:03;42.63;;;25.20;;
18280;SDS011;9266;51.132;17.062;2023-02-15T10:37:54;36.97;;;22.90;;
18280;SDS011;9266;51.132;17.062;2023-02-15T10:40:33;33.70;;;23.03;;
18280;SDS011;9266;51.132;17.062;2023-02-15T10:46:12;35.40;;;23.57;;
18280;SDS011;9266;51.132;17.062;2023-02-15T10:49:04;33.33;;;22.27;;
18280;SDS011;9266;51.132;17.062;2023-02-15T10:51:46;35.37;;;22.83;;
18280;SDS011;9266;51.132;17.062;2023-02-15T10:54:25;35.33;;;22.73;;
18280;SDS011;9266;51.132;17.062;2023-02-15T10:57:01;35.57;;;22.03;;
18280;SDS011;9266;51.132;17.062;2023-02-15T10:59:39;34.13;;;20.60;;
18280;SDS011;9266;51.132;17.062;2023-02-15T11:02:25;34.27;;;21.27;;
18280;SDS011;9266;51.132;17.062;2023-02-15T11:05:13;36.67;;;23.03;;
18280;SDS011;9266;51.132;17.062;2023-02-15T11:07:51;34.47;;;22.83;;
18280;SDS011;9266;51.132;17.062;2023-02-15T11:10:24;33.20;;;21.17;;
18280;SDS011;9266;51.132;17.062;2023-02-15T11:12:56;31.13;;;20.73;;
18280;SDS011;9266;51.132;17.062;2023-02-15T11:15:30;35.17;;;20.43;;
18280;SDS011;9266;51.132;17.062;2023-02-15T11:18:00;32.30;;;20.83;;
18280;SDS011;9266;51.132;17.062;2023-02-15T11:20:35;32.63;;;20.50;;
18280;SDS011;9266;51.132;17.062;2023-02-15T11:23:09;31.03;;;20.47;;
18280;SDS011;9266;51.132;17.062;2023-02-15T11:25:41;34.27;;;20.97;;
18280;SDS011;9266;51.132;17.062;2023-02-15T11:28:16;33.47;;;21.20;;
18280;SDS011;9266;51.132;17.062;2023-02-15T11:30:50;36.17;;;22.27;;
18280;SDS011;9266;51.132;17.062;2023-02-15T11:33:21;36.03;;;24.10;;
18280;SDS011;9266;51.132;17.062;2023-02-15T11:35:55;36.40;;;22.80;;
18280;SDS011;9266;51.132;17.062;2023-02-15T11:38:27;34.93;;;23.87;;
18280;SDS011;9266;51.132;17.062;2023-02-15T11:40:59;35.80;;;22.63;;
18280;SDS011;9266;51.132;17.062;2023-02-15T11:43:31;35.50;;;22.50;;
18280;SDS011;9266;51.132;17.062;2023-02-15T11:46:03;36.67;;;23.97;;
18280;SDS011;9266;51.132;17.062;2023-02-15T11:48:31;37.07;;;24.00;;
18280;SDS011;9266;51.132;17.062;2023-02-15T11:51:02;37.47;;;24.70;;
18280;SDS011;9266;51.132;17.062;2023-02-15T11:53:31;34.57;;;22.33;;
18280;SDS011;9266;51.132;17.062;2023-02-15T11:56:02;39.70;;;24.67;;
18280;SDS011;9266;51.132;17.062;2023-02-15T11:58:32;36.60;;;23.33;;
18280;SDS011;9266;51.132;17.062;2023-02-15T12:01:08;38.97;;;24.87;;
18280;SDS011;9266;51.132;17.062;2023-02-15T12:03:42;38.60;;;24.23;;
18280;SDS011;9266;51.132;17.062;2023-02-15T12:06:18;34.77;;;22.97;;
18280;SDS011;9266;51.132;17.062;2023-02-15T12:08:52;33.63;;;22.50;;
18280;SDS011;9266;51.132;17.062;2023-02-15T12:11:25;40.23;;;23.53;;
18280;SDS011;9266;51.132;17.062;2023-02-15T12:13:58;35.33;;;23.40;;
18280;SDS011;9266;51.132;17.062;2023-02-15T12:16:27;34.50;;;23.63;;
18280;SDS011;9266;51.132;17.062;2023-02-15T12:18:58;36.80;;;23.80;;
18280;SDS011;9266;51.132;17.062;2023-02-15T12:21:30;37.50;;;24.63;;
18280;SDS011;9266;51.132;17.062;2023-02-15T12:24:00;43.30;;;26.33;;
18280;SDS011;9266;51.132;17.062;2023-02-15T12:26:35;38.37;;;24.87;;
18280;SDS011;9266;51.132;17.062;2023-02-15T12:29:06;35.57;;;23.27;;
18280;SDS011;9266;51.132;17.062;2023-02-15T12:31:39;37.50;;;24.70;;
18280;SDS011;9266;51.132;17.062;2023-02-15T12:34:11;41.70;;;25.07;;
18280;SDS011;9266;51.132;17.062;2023-02-15T12:36:46;37.17;;;23.27;;
18280;SDS011;9266;51.132;17.062;2023-02-15T12:39:16;40.70;;;25.00;;
18280;SDS011;9266;51.132;17.062;2023-02-15T12:41:56;39.50;;;24.60;;
18280;SDS011;9266;51.132;17.062;2023-02-15T12:44:29;36.83;;;23.77;;
18280;SDS011;9266;51.132;17.062;2023-02-15T12:46:59;37.83;;;23.63;;
18280;SDS011;9266;51.132;17.062;2023-02-15T12:49:29;37.97;;;23.47;;
18280;SDS011;9266;51.132;17.062;2023-02-15T12:51:58;38.30;;;24.47;;
18280;SDS011;9266;51.132;17.062;2023-02-15T12:54:32;33.97;;;22.87;;
18280;SDS011;9266;51.132;17.062;2023-02-15T12:59:51;39.50;;;25.60;;
18280;SDS011;9266;51.132;17.062;2023-02-15T13:02:25;36.00;;;23.47;;
18280;SDS011;9266;51.132;17.062;2023-02-15T13:04:55;37.83;;;25.40;;
18280;SDS011;9266;51.132;17.062;2023-02-15T13:07:28;40.10;;;25.63;;
18280;SDS011;9266;51.132;17.062;2023-02-15T13:09:57;40.47;;;25.87;;
18280;SDS011;9266;51.132;17.062;2023-02-15T13:12:25;42.63;;;25.97;;
18280;SDS011;9266;51.132;17.062;2023-02-15T13:14:56;38.63;;;24.70;;
18280;SDS011;9266;51.132;17.062;2023-02-15T13:17:25;40.67;;;25.23;;
18280;SDS011;9266;51.132;17.062;2023-02-15T13:19:55;42.27;;;25.83;;
18280;SDS011;9266;51.132;17.062;2023-02-15T13:22:27;40.03;;;25.73;;
18280;SDS011;9266;51.132;17.062;2023-02-15T13:25:02;43.93;;;26.83;;
18280;SDS011;9266;51.132;17.062;2023-02-15T13:27:36;37.83;;;24.23;;
18280;SDS011;9266;51.132;17.062;2023-02-15T13:30:10;39.07;;;24.87;;
18280;SDS011;9266;51.132;17.062;2023-02-15T13:32:46;35.87;;;23.23;;
18280;SDS011;9266;51.132;17.062;2023-02-15T13:35:17;42.33;;;25.27;;
18280;SDS011;9266;51.132;17.062;2023-02-15T13:37:51;40.33;;;26.27;;
18280;SDS011;9266;51.132;17.062;2023-02-15T13:40:33;35.13;;;23.57;;
18280;SDS011;9266;51.132;17.062;2023-02-15T13:43:05;38.20;;;24.50;;
18280;SDS011;9266;51.132;17.062;2023-02-15T13:45:49;34.13;;;23.10;;
18280;SDS011;9266;51.132;17.062;2023-02-15T13:48:25;35.37;;;23.33;;
18280;SDS011;9266;51.132;17.062;2023-02-15T13:51:04;38.83;;;23.97;;
18280;SDS011;9266;51.132;17.062;2023-02-15T13:53:42;35.37;;;21.97;;
18280;SDS011;9266;51.132;17.062;2023-02-15T13:56:26;32.47;;;21.50;;
18280;SDS011;9266;51.132;17.062;2023-02-15T13:59:07;33.40;;;22.20;;
18280;SDS011;9266;51.132;17.062;2023-02-15T14:01:49;40.40;;;24.80;;
18280;SDS011;9266;51.132;17.062;2023-02-15T14:04:25;34.73;;;22.23;;
18280;SDS011;9266;51.132;17.062;2023-02-15T14:10:06;32.83;;;22.83;;
18280;SDS011;9266;51.132;17.062;2023-02-15T14:13:05;34.20;;;22.40;;
18280;SDS011;9266;51.132;17.062;2023-02-15T14:15:50;39.07;;;22.57;;
18280;SDS011;9266;51.132;17.062;2023-02-15T14:18:25;32.93;;;22.47;;
18280;SDS011;9266;51.132;17.062;2023-02-15T14:21:04;36.70;;;23.90;;
18280;SDS011;9266;51.132;17.062;2023-02-15T14:23:41;33.20;;;22.03;;
18280;SDS011;9266;51.132;17.062;2023-02-15T14:26:21;32.40;;;21.80;;
18280;SDS011;9266;51.132;17.062;2023-02-15T14:29:01;34.07;;;21.47;;
18280;SDS011;9266;51.132;17.062;2023-02-15T14:31:37;33.40;;;21.80;;
18280;SDS011;9266;51.132;17.062;2023-02-15T14:34:15;36.33;;;22.93;;
18280;SDS011;9266;51.132;17.062;2023-02-15T14:36:47;37.50;;;23.50;;
18280;SDS011;9266;51.132;17.062;2023-02-15T14:39:17;34.03;;;21.90;;
18280;SDS011;9266;51.132;17.062;2023-02-15T14:42:18;35.87;;;22.37;;
18280;SDS011;9266;51.132;17.062;2023-02-15T14:44:52;34.43;;;21.63;;
18280;SDS011;9266;51.132;17.062;2023-02-15T14:47:28;32.67;;;22.20;;
18280;SDS011;9266;51.132;17.062;2023-02-15T14:53:15;34.07;;;22.57;;
18280;SDS011;9266;51.132;17.062;2023-02-15T14:56:20;36.53;;;22.63;;
18280;SDS011;9266;51.132;17.062;2023-02-15T15:01:57;33.33;;;21.27;;
18280;SDS011;9266;51.132;17.062;2023-02-15T15:04:31;37.73;;;24.03;;
18280;SDS011;9266;51.132;17.062;2023-02-15T15:07:02;35.07;;;22.03;;
18280;SDS011;9266;51.132;17.062;2023-02-15T15:09:35;37.20;;;22.67;;
18280;SDS011;9266;51.132;17.062;2023-02-15T15:15:09;39.73;;;23.47;;
18280;SDS011;9266;51.132;17.062;2023-02-15T15:20:39;35.17;;;22.20;;
18280;SDS011;9266;51.132;17.062;2023-02-15T15:26:23;31.67;;;21.47;;